sensor_id;sensor_type;location;lat;lon;timestamp;P1;durP1;ratioP1;P2;durP2;ratioP2
64907;SDS011;69061;52.236;5.188;2023-08-06T00:00:12;16.40;;;12.30;;
64907;SDS011;69061;52.236;5.188;2023-08-06T00:02:40;14.55;;;11.55;;
64907;SDS011;69061;52.236;5.188;2023-08-06T00:05:07;19.02;;;11.55;;
64907;SDS011;69061;52.236;5.188;2023-08-06T00:07:37;18.38;;;12.30;;
64907;SDS011;69061;52.236;5.188;2023-08-06T00:10:04;18.75;;;12.50;;
64907;SDS011;69061;52.236;5.188;2023-08-06T00:12:31;20.85;;;14.00;;
64907;SDS011;69061;52.236;5.188;2023-08-06T00:14:58;19.15;;;11.98;;
64907;SDS011;69061;52.236;5.188;2023-08-06T00:17:24;20.05;;;14.02;;
64907;SDS011;69061;52.236;5.188;2023-08-06T00:19:52;15.02;;;11.38;;
64907;SDS011;69061;52.236;5.188;2023-08-06T00:22:19;18.65;;;13.20;;
64907;SDS011;69061;52.236;5.188;2023-08-06T00:24:46;14.45;;;10.88;;
64907;SDS011;69061;52.236;5.188;2023-08-06T00:27:13;16.83;;;11.25;;
64907;SDS011;69061;52.236;5.188;2023-08-06T00:29:41;19.88;;;12.85;;
64907;SDS011;69061;52.236;5.188;2023-08-06T00:32:08;17.98;;;11.57;;
64907;SDS011;69061;52.236;5.188;2023-08-06T00:34:34;18.60;;;11.77;;
64907;SDS011;69061;52.236;5.188;2023-08-06T00:37:03;20.70;;;12.93;;
64907;SDS011;69061;52.236;5.188;2023-08-06T00:39:30;21.02;;;13.20;;
64907;SDS011;69061;52.236;5.188;2023-08-06T00:41:58;19.30;;;12.45;;
64907;SDS011;69061;52.236;5.188;2023-08-06T00:44:25;20.38;;;13.30;;
64907;SDS011;69061;52.236;5.188;2023-08-06T00:46:53;18.40;;;12.13;;
64907;SDS011;69061;52.236;5.188;2023-08-06T00:49:19;18.42;;;12.68;;
64907;SDS011;69061;52.236;5.188;2023-08-06T00:51:46;19.38;;;11.23;;
64907;SDS011;69061;52.236;5.188;2023-08-06T00:54:15;20.08;;;12.85;;
64907;SDS011;69061;52.236;5.188;2023-08-06T00:56:42;12.75;;;8.90;;
64907;SDS011;69061;52.236;5.188;2023-08-06T00:59:09;17.77;;;12.05;;
64907;SDS011;69061;52.236;5.188;2023-08-06T01:01:37;16.75;;;11.90;;
64907;SDS011;69061;52.236;5.188;2023-08-06T01:04:04;18.98;;;13.00;;
64907;SDS011;69061;52.236;5.188;2023-08-06T01:06:33;16.73;;;11.77;;
64907;SDS011;69061;52.236;5.188;2023-08-06T01:09:07;18.98;;;12.07;;
64907;SDS011;69061;52.236;5.188;2023-08-06T01:11:47;20.13;;;12.85;;
64907;SDS011;69061;52.236;5.188;2023-08-06T01:14:23;15.25;;;12.07;;
64907;SDS011;69061;52.236;5.188;2023-08-06T01:16:56;15.48;;;10.65;;
64907;SDS011;69061;52.236;5.188;2023-08-06T01:19:24;15.48;;;11.70;;
64907;SDS011;69061;52.236;5.188;2023-08-06T01:21:52;17.23;;;12.13;;
64907;SDS011;69061;52.236;5.188;2023-08-06T01:24:19;17.92;;;11.05;;
64907;SDS011;69061;52.236;5.188;2023-08-06T01:26:48;19.70;;;11.60;;
64907;SDS011;69061;52.236;5.188;2023-08-06T01:29:23;17.23;;;11.57;;
64907;SDS011;69061;52.236;5.188;2023-08-06T01:31:53;17.20;;;10.32;;
64907;SDS011;69061;52.236;5.188;2023-08-06T01:34:23;17.40;;;10.85;;
64907;SDS011;69061;52.236;5.188;2023-08-06T01:36:53;20.73;;;11.38;;
64907;SDS011;69061;52.236;5.188;2023-08-06T01:39:20;17.08;;;11.02;;
64907;SDS011;69061;52.236;5.188;2023-08-06T01:41:47;19.92;;;11.65;;
64907;SDS011;69061;52.236;5.188;2023-08-06T01:44:14;13.82;;;10.52;;
64907;SDS011;69061;52.236;5.188;2023-08-06T01:46:41;18.63;;;11.55;;
64907;SDS011;69061;52.236;5.188;2023-08-06T01:49:08;17.27;;;11.90;;
64907;SDS011;69061;52.236;5.188;2023-08-06T01:51:34;15.15;;;11.27;;
64907;SDS011;69061;52.236;5.188;2023-08-06T01:54:02;16.20;;;11.48;;
64907;SDS011;69061;52.236;5.188;2023-08-06T01:56:29;17.90;;;11.70;;
64907;SDS011;69061;52.236;5.188;2023-08-06T01:58:56;19.40;;;13.15;;
64907;SDS011;69061;52.236;5.188;2023-08-06T02:01:22;17.80;;;12.43;;
64907;SDS011;69061;52.236;5.188;2023-08-06T02:03:49;17.10;;;11.23;;
64907;SDS011;69061;52.236;5.188;2023-08-06T02:06:16;19.02;;;12.70;;
64907;SDS011;69061;52.236;5.188;2023-08-06T02:08:42;16.23;;;11.35;;
64907;SDS011;69061;52.236;5.188;2023-08-06T02:11:10;15.32;;;11.15;;
64907;SDS011;69061;52.236;5.188;2023-08-06T02:13:37;18.00;;;11.98;;
64907;SDS011;69061;52.236;5.188;2023-08-06T02:16:05;17.10;;;11.27;;
64907;SDS011;69061;52.236;5.188;2023-08-06T02:18:33;20.77;;;12.63;;
64907;SDS011;69061;52.236;5.188;2023-08-06T02:21:00;20.77;;;13.55;;
64907;SDS011;69061;52.236;5.188;2023-08-06T02:23:27;20.92;;;13.48;;
64907;SDS011;69061;52.236;5.188;2023-08-06T02:25:57;18.17;;;12.93;;
64907;SDS011;69061;52.236;5.188;2023-08-06T02:28:26;24.13;;;14.68;;
64907;SDS011;69061;52.236;5.188;2023-08-06T02:30:53;13.20;;;10.27;;
64907;SDS011;69061;52.236;5.188;2023-08-06T02:33:20;18.40;;;12.23;;
64907;SDS011;69061;52.236;5.188;2023-08-06T02:35:46;19.60;;;12.90;;
64907;SDS011;69061;52.236;5.188;2023-08-06T02:38:13;22.40;;;13.30;;
64907;SDS011;69061;52.236;5.188;2023-08-06T02:40:42;21.20;;;14.40;;
64907;SDS011;69061;52.236;5.188;2023-08-06T02:43:10;19.02;;;13.48;;
64907;SDS011;69061;52.236;5.188;2023-08-06T02:45:38;21.23;;;13.90;;
64907;SDS011;69061;52.236;5.188;2023-08-06T02:48:05;22.45;;;14.90;;
64907;SDS011;69061;52.236;5.188;2023-08-06T02:50:37;23.00;;;15.63;;
64907;SDS011;69061;52.236;5.188;2023-08-06T02:53:04;21.65;;;15.20;;
64907;SDS011;69061;52.236;5.188;2023-08-06T02:55:31;16.10;;;12.05;;
64907;SDS011;69061;52.236;5.188;2023-08-06T02:57:57;24.70;;;16.10;;
64907;SDS011;69061;52.236;5.188;2023-08-06T03:00:24;25.55;;;16.15;;
64907;SDS011;69061;52.236;5.188;2023-08-06T03:02:52;25.35;;;16.42;;
64907;SDS011;69061;52.236;5.188;2023-08-06T03:05:19;21.20;;;14.80;;
64907;SDS011;69061;52.236;5.188;2023-08-06T03:07:46;22.73;;;14.20;;
64907;SDS011;69061;52.236;5.188;2023-08-06T03:10:12;19.65;;;12.23;;
64907;SDS011;69061;52.236;5.188;2023-08-06T03:12:39;22.23;;;14.45;;
64907;SDS011;69061;52.236;5.188;2023-08-06T03:15:06;28.83;;;16.70;;
64907;SDS011;69061;52.236;5.188;2023-08-06T03:17:33;24.08;;;16.98;;
64907;SDS011;69061;52.236;5.188;2023-08-06T03:20:01;24.20;;;15.98;;
64907;SDS011;69061;52.236;5.188;2023-08-06T03:22:28;19.73;;;14.20;;
64907;SDS011;69061;52.236;5.188;2023-08-06T03:24:55;22.90;;;15.68;;
64907;SDS011;69061;52.236;5.188;2023-08-06T03:27:21;20.80;;;14.98;;
64907;SDS011;69061;52.236;5.188;2023-08-06T03:29:48;25.60;;;16.63;;
64907;SDS011;69061;52.236;5.188;2023-08-06T03:32:15;22.05;;;16.65;;
64907;SDS011;69061;52.236;5.188;2023-08-06T03:34:42;23.63;;;15.13;;
64907;SDS011;69061;52.236;5.188;2023-08-06T03:37:10;23.38;;;15.82;;
64907;SDS011;69061;52.236;5.188;2023-08-06T03:39:36;20.60;;;15.18;;
64907;SDS011;69061;52.236;5.188;2023-08-06T03:42:03;20.25;;;14.48;;
64907;SDS011;69061;52.236;5.188;2023-08-06T03:44:30;21.08;;;15.60;;
64907;SDS011;69061;52.236;5.188;2023-08-06T03:46:57;27.30;;;17.08;;
64907;SDS011;69061;52.236;5.188;2023-08-06T03:49:23;22.85;;;16.15;;
64907;SDS011;69061;52.236;5.188;2023-08-06T03:51:50;23.52;;;16.42;;
64907;SDS011;69061;52.236;5.188;2023-08-06T03:54:18;21.70;;;15.20;;
64907;SDS011;69061;52.236;5.188;2023-08-06T03:56:45;20.05;;;14.63;;
64907;SDS011;69061;52.236;5.188;2023-08-06T03:59:11;22.25;;;13.23;;
64907;SDS011;69061;52.236;5.188;2023-08-06T04:01:38;18.50;;;12.25;;
64907;SDS011;69061;52.236;5.188;2023-08-06T04:04:05;18.40;;;10.57;;
64907;SDS011;69061;52.236;5.188;2023-08-06T04:06:31;19.40;;;12.85;;
64907;SDS011;69061;52.236;5.188;2023-08-06T04:08:58;15.43;;;11.10;;
64907;SDS011;69061;52.236;5.188;2023-08-06T04:11:26;13.55;;;10.52;;
64907;SDS011;69061;52.236;5.188;2023-08-06T04:13:53;15.05;;;10.82;;
64907;SDS011;69061;52.236;5.188;2023-08-06T04:16:20;14.10;;;10.05;;
64907;SDS011;69061;52.236;5.188;2023-08-06T04:18:47;14.77;;;11.07;;
64907;SDS011;69061;52.236;5.188;2023-08-06T04:21:13;13.85;;;9.68;;
64907;SDS011;69061;52.236;5.188;2023-08-06T04:23:40;14.50;;;10.73;;
64907;SDS011;69061;52.236;5.188;2023-08-06T04:26:07;14.68;;;10.30;;
64907;SDS011;69061;52.236;5.188;2023-08-06T04:28:35;15.68;;;12.15;;
64907;SDS011;69061;52.236;5.188;2023-08-06T04:31:01;13.98;;;10.40;;
64907;SDS011;69061;52.236;5.188;2023-08-06T04:33:28;16.00;;;11.38;;
64907;SDS011;69061;52.236;5.188;2023-08-06T04:35:55;15.98;;;10.15;;
64907;SDS011;69061;52.236;5.188;2023-08-06T04:38:23;15.45;;;11.00;;
64907;SDS011;69061;52.236;5.188;2023-08-06T04:40:50;15.85;;;12.02;;
64907;SDS011;69061;52.236;5.188;2023-08-06T04:43:17;17.67;;;11.20;;
64907;SDS011;69061;52.236;5.188;2023-08-06T04:45:47;16.63;;;12.55;;
64907;SDS011;69061;52.236;5.188;2023-08-06T04:48:13;19.15;;;11.68;;
64907;SDS011;69061;52.236;5.188;2023-08-06T04:50:43;21.67;;;10.13;;
64907;SDS011;69061;52.236;5.188;2023-08-06T04:53:10;16.65;;;12.20;;
64907;SDS011;69061;52.236;5.188;2023-08-06T04:55:37;13.50;;;10.10;;
64907;SDS011;69061;52.236;5.188;2023-08-06T04:58:04;13.98;;;10.07;;
64907;SDS011;69061;52.236;5.188;2023-08-06T05:00:31;13.40;;;9.45;;
64907;SDS011;69061;52.236;5.188;2023-08-06T05:03:00;14.50;;;10.90;;
64907;SDS011;69061;52.236;5.188;2023-08-06T05:05:26;14.07;;;10.98;;
64907;SDS011;69061;52.236;5.188;2023-08-06T05:07:54;14.80;;;10.13;;
64907;SDS011;69061;52.236;5.188;2023-08-06T05:10:21;18.02;;;10.57;;
64907;SDS011;69061;52.236;5.188;2023-08-06T05:12:50;17.15;;;12.55;;
64907;SDS011;69061;52.236;5.188;2023-08-06T05:15:17;17.67;;;10.07;;
64907;SDS011;69061;52.236;5.188;2023-08-06T05:17:43;13.60;;;10.02;;
64907;SDS011;69061;52.236;5.188;2023-08-06T05:20:12;17.83;;;11.70;;
64907;SDS011;69061;52.236;5.188;2023-08-06T05:22:39;13.80;;;9.00;;
64907;SDS011;69061;52.236;5.188;2023-08-06T05:25:06;13.05;;;9.52;;
64907;SDS011;69061;52.236;5.188;2023-08-06T05:27:33;15.25;;;10.77;;
64907;SDS011;69061;52.236;5.188;2023-08-06T05:30:00;14.75;;;10.57;;
64907;SDS011;69061;52.236;5.188;2023-08-06T05:32:26;13.57;;;9.88;;
64907;SDS011;69061;52.236;5.188;2023-08-06T05:34:53;15.38;;;12.13;;
64907;SDS011;69061;52.236;5.188;2023-08-06T05:37:21;14.15;;;9.77;;
64907;SDS011;69061;52.236;5.188;2023-08-06T05:39:48;13.18;;;10.50;;
64907;SDS011;69061;52.236;5.188;2023-08-06T05:42:14;14.32;;;10.88;;
64907;SDS011;69061;52.236;5.188;2023-08-06T05:44:41;17.23;;;12.82;;
64907;SDS011;69061;52.236;5.188;2023-08-06T05:47:08;17.10;;;12.07;;
64907;SDS011;69061;52.236;5.188;2023-08-06T05:49:34;15.60;;;11.50;;
64907;SDS011;69061;52.236;5.188;2023-08-06T05:52:01;17.08;;;12.23;;
64907;SDS011;69061;52.236;5.188;2023-08-06T05:54:32;16.40;;;12.00;;
64907;SDS011;69061;52.236;5.188;2023-08-06T05:56:59;19.58;;;13.13;;
64907;SDS011;69061;52.236;5.188;2023-08-06T05:59:25;13.95;;;10.48;;
64907;SDS011;69061;52.236;5.188;2023-08-06T06:01:52;12.00;;;7.75;;
64907;SDS011;69061;52.236;5.188;2023-08-06T06:04:19;9.05;;;7.07;;
64907;SDS011;69061;52.236;5.188;2023-08-06T06:06:45;7.97;;;6.20;;
64907;SDS011;69061;52.236;5.188;2023-08-06T06:09:12;9.13;;;6.28;;
64907;SDS011;69061;52.236;5.188;2023-08-06T06:11:40;8.15;;;5.95;;
64907;SDS011;69061;52.236;5.188;2023-08-06T06:14:06;7.18;;;5.13;;
64907;SDS011;69061;52.236;5.188;2023-08-06T06:16:33;7.95;;;5.97;;
64907;SDS011;69061;52.236;5.188;2023-08-06T06:19:00;6.82;;;5.18;;
64907;SDS011;69061;52.236;5.188;2023-08-06T06:21:27;6.22;;;4.63;;
64907;SDS011;69061;52.236;5.188;2023-08-06T06:23:53;7.70;;;5.13;;
64907;SDS011;69061;52.236;5.188;2023-08-06T06:26:21;5.35;;;4.28;;
64907;SDS011;69061;52.236;5.188;2023-08-06T06:28:49;6.40;;;4.45;;
64907;SDS011;69061;52.236;5.188;2023-08-06T06:31:16;4.57;;;4.03;;
64907;SDS011;69061;52.236;5.188;2023-08-06T06:33:43;5.03;;;4.03;;
64907;SDS011;69061;52.236;5.188;2023-08-06T06:36:09;5.00;;;3.80;;
64907;SDS011;69061;52.236;5.188;2023-08-06T06:38:36;6.40;;;4.25;;
64907;SDS011;69061;52.236;5.188;2023-08-06T06:41:03;5.30;;;4.30;;
64907;SDS011;69061;52.236;5.188;2023-08-06T06:43:30;7.00;;;4.53;;
64907;SDS011;69061;52.236;5.188;2023-08-06T06:45:58;5.63;;;4.43;;
64907;SDS011;69061;52.236;5.188;2023-08-06T06:48:26;6.10;;;4.22;;
64907;SDS011;69061;52.236;5.188;2023-08-06T06:50:54;4.70;;;3.88;;
64907;SDS011;69061;52.236;5.188;2023-08-06T06:53:21;5.53;;;3.90;;
64907;SDS011;69061;52.236;5.188;2023-08-06T06:55:52;5.53;;;4.07;;
64907;SDS011;69061;52.236;5.188;2023-08-06T06:58:18;5.97;;;4.07;;
64907;SDS011;69061;52.236;5.188;2023-08-06T07:00:45;6.05;;;4.05;;
64907;SDS011;69061;52.236;5.188;2023-08-06T07:03:14;5.38;;;4.32;;
64907;SDS011;69061;52.236;5.188;2023-08-06T07:05:41;6.20;;;4.53;;
64907;SDS011;69061;52.236;5.188;2023-08-06T07:08:08;5.88;;;4.50;;
64907;SDS011;69061;52.236;5.188;2023-08-06T07:10:35;6.63;;;5.28;;
64907;SDS011;69061;52.236;5.188;2023-08-06T07:13:01;5.68;;;4.93;;
64907;SDS011;69061;52.236;5.188;2023-08-06T07:15:28;5.65;;;4.80;;
64907;SDS011;69061;52.236;5.188;2023-08-06T07:17:55;7.38;;;4.93;;
64907;SDS011;69061;52.236;5.188;2023-08-06T07:20:23;6.68;;;5.00;;
64907;SDS011;69061;52.236;5.188;2023-08-06T07:22:50;5.50;;;4.70;;
64907;SDS011;69061;52.236;5.188;2023-08-06T07:25:16;4.97;;;3.88;;
64907;SDS011;69061;52.236;5.188;2023-08-06T07:27:45;5.57;;;4.45;;
64907;SDS011;69061;52.236;5.188;2023-08-06T07:30:12;5.68;;;4.30;;
64907;SDS011;69061;52.236;5.188;2023-08-06T07:32:39;7.32;;;4.60;;
64907;SDS011;69061;52.236;5.188;2023-08-06T07:35:05;6.65;;;4.95;;
64907;SDS011;69061;52.236;5.188;2023-08-06T07:37:36;6.68;;;4.82;;
64907;SDS011;69061;52.236;5.188;2023-08-06T07:40:03;5.75;;;4.20;;
64907;SDS011;69061;52.236;5.188;2023-08-06T07:42:30;9.25;;;4.88;;
64907;SDS011;69061;52.236;5.188;2023-08-06T07:44:58;5.72;;;4.47;;
64907;SDS011;69061;52.236;5.188;2023-08-06T07:47:25;5.93;;;4.18;;
64907;SDS011;69061;52.236;5.188;2023-08-06T07:49:51;7.45;;;4.28;;
64907;SDS011;69061;52.236;5.188;2023-08-06T07:52:18;6.43;;;4.53;;
64907;SDS011;69061;52.236;5.188;2023-08-06T07:54:46;9.60;;;4.28;;
64907;SDS011;69061;52.236;5.188;2023-08-06T07:57:13;8.25;;;4.30;;
64907;SDS011;69061;52.236;5.188;2023-08-06T07:59:41;6.55;;;4.47;;
64907;SDS011;69061;52.236;5.188;2023-08-06T08:02:07;5.95;;;4.40;;
64907;SDS011;69061;52.236;5.188;2023-08-06T08:04:34;7.38;;;4.88;;
64907;SDS011;69061;52.236;5.188;2023-08-06T08:07:01;6.05;;;4.32;;
64907;SDS011;69061;52.236;5.188;2023-08-06T08:09:27;7.45;;;4.75;;
64907;SDS011;69061;52.236;5.188;2023-08-06T08:11:55;7.97;;;4.70;;
64907;SDS011;69061;52.236;5.188;2023-08-06T08:14:24;5.68;;;4.22;;
64907;SDS011;69061;52.236;5.188;2023-08-06T08:16:50;5.47;;;4.57;;
64907;SDS011;69061;52.236;5.188;2023-08-06T08:19:17;4.78;;;4.20;;
64907;SDS011;69061;52.236;5.188;2023-08-06T08:21:44;7.68;;;4.57;;
64907;SDS011;69061;52.236;5.188;2023-08-06T08:24:11;5.82;;;4.28;;
64907;SDS011;69061;52.236;5.188;2023-08-06T08:26:38;6.15;;;4.70;;
64907;SDS011;69061;52.236;5.188;2023-08-06T08:29:06;6.25;;;4.78;;
64907;SDS011;69061;52.236;5.188;2023-08-06T08:31:32;7.10;;;5.13;;
64907;SDS011;69061;52.236;5.188;2023-08-06T08:34:04;8.68;;;5.20;;
64907;SDS011;69061;52.236;5.188;2023-08-06T08:36:30;8.90;;;5.72;;
64907;SDS011;69061;52.236;5.188;2023-08-06T08:38:57;7.97;;;5.00;;
64907;SDS011;69061;52.236;5.188;2023-08-06T08:41:24;8.63;;;5.50;;
64907;SDS011;69061;52.236;5.188;2023-08-06T08:43:51;9.38;;;5.32;;
64907;SDS011;69061;52.236;5.188;2023-08-06T08:46:19;7.78;;;5.05;;
64907;SDS011;69061;52.236;5.188;2023-08-06T08:48:46;11.30;;;5.60;;
64907;SDS011;69061;52.236;5.188;2023-08-06T08:51:13;7.32;;;5.20;;
64907;SDS011;69061;52.236;5.188;2023-08-06T08:53:43;5.97;;;4.88;;
64907;SDS011;69061;52.236;5.188;2023-08-06T08:56:11;7.90;;;4.97;;
64907;SDS011;69061;52.236;5.188;2023-08-06T08:58:39;6.95;;;5.38;;
64907;SDS011;69061;52.236;5.188;2023-08-06T09:01:06;9.00;;;5.50;;
64907;SDS011;69061;52.236;5.188;2023-08-06T09:03:35;11.13;;;5.60;;
64907;SDS011;69061;52.236;5.188;2023-08-06T09:06:02;6.68;;;5.38;;
64907;SDS011;69061;52.236;5.188;2023-08-06T09:08:32;8.02;;;6.18;;
64907;SDS011;69061;52.236;5.188;2023-08-06T09:11:02;6.93;;;5.30;;
64907;SDS011;69061;52.236;5.188;2023-08-06T09:13:31;7.15;;;5.05;;
64907;SDS011;69061;52.236;5.188;2023-08-06T09:15:57;9.02;;;5.88;;
64907;SDS011;69061;52.236;5.188;2023-08-06T09:18:27;9.85;;;6.07;;
64907;SDS011;69061;52.236;5.188;2023-08-06T09:20:57;6.35;;;5.18;;
64907;SDS011;69061;52.236;5.188;2023-08-06T09:23:27;7.55;;;5.53;;
64907;SDS011;69061;52.236;5.188;2023-08-06T09:25:56;9.27;;;5.53;;
64907;SDS011;69061;52.236;5.188;2023-08-06T09:28:23;9.52;;;5.80;;
64907;SDS011;69061;52.236;5.188;2023-08-06T09:30:50;10.52;;;5.22;;
64907;SDS011;69061;52.236;5.188;2023-08-06T09:33:20;9.07;;;5.50;;
64907;SDS011;69061;52.236;5.188;2023-08-06T09:35:49;8.40;;;5.93;;
64907;SDS011;69061;52.236;5.188;2023-08-06T09:38:17;9.15;;;5.95;;
64907;SDS011;69061;52.236;5.188;2023-08-06T09:40:43;8.30;;;5.57;;
64907;SDS011;69061;52.236;5.188;2023-08-06T09:43:10;8.55;;;5.53;;
64907;SDS011;69061;52.236;5.188;2023-08-06T09:45:38;9.43;;;5.82;;
64907;SDS011;69061;52.236;5.188;2023-08-06T09:48:05;8.35;;;5.85;;
64907;SDS011;69061;52.236;5.188;2023-08-06T09:50:33;9.30;;;5.68;;
64907;SDS011;69061;52.236;5.188;2023-08-06T09:53:01;11.10;;;6.28;;
64907;SDS011;69061;52.236;5.188;2023-08-06T09:55:30;10.25;;;6.03;;
64907;SDS011;69061;52.236;5.188;2023-08-06T09:57:58;9.65;;;6.85;;
64907;SDS011;69061;52.236;5.188;2023-08-06T10:00:25;11.50;;;5.63;;
64907;SDS011;69061;52.236;5.188;2023-08-06T10:02:53;9.63;;;6.63;;
64907;SDS011;69061;52.236;5.188;2023-08-06T10:05:21;11.00;;;6.20;;
64907;SDS011;69061;52.236;5.188;2023-08-06T10:07:49;9.93;;;6.28;;
64907;SDS011;69061;52.236;5.188;2023-08-06T10:10:17;9.45;;;5.68;;
64907;SDS011;69061;52.236;5.188;2023-08-06T10:12:46;11.30;;;6.07;;
64907;SDS011;69061;52.236;5.188;2023-08-06T10:15:16;9.90;;;5.22;;
64907;SDS011;69061;52.236;5.188;2023-08-06T10:17:46;9.98;;;5.63;;
64907;SDS011;69061;52.236;5.188;2023-08-06T10:20:16;9.02;;;5.88;;
64907;SDS011;69061;52.236;5.188;2023-08-06T10:22:43;8.48;;;4.60;;
64907;SDS011;69061;52.236;5.188;2023-08-06T10:25:10;11.50;;;5.70;;
64907;SDS011;69061;52.236;5.188;2023-08-06T10:27:52;9.23;;;4.80;;
64907;SDS011;69061;52.236;5.188;2023-08-06T10:30:21;9.68;;;5.25;;
64907;SDS011;69061;52.236;5.188;2023-08-06T10:32:49;9.30;;;5.57;;
64907;SDS011;69061;52.236;5.188;2023-08-06T10:35:30;13.07;;;5.47;;
64907;SDS011;69061;52.236;5.188;2023-08-06T10:38:04;10.10;;;5.70;;
64907;SDS011;69061;52.236;5.188;2023-08-06T10:40:32;11.30;;;5.78;;
64907;SDS011;69061;52.236;5.188;2023-08-06T10:43:00;10.60;;;5.30;;
64907;SDS011;69061;52.236;5.188;2023-08-06T10:45:27;8.35;;;5.13;;
64907;SDS011;69061;52.236;5.188;2023-08-06T10:47:55;8.80;;;4.32;;
64907;SDS011;69061;52.236;5.188;2023-08-06T10:50:23;11.05;;;4.85;;
64907;SDS011;69061;52.236;5.188;2023-08-06T10:52:50;6.22;;;3.72;;
64907;SDS011;69061;52.236;5.188;2023-08-06T10:55:24;9.63;;;4.72;;
64907;SDS011;69061;52.236;5.188;2023-08-06T10:57:51;8.65;;;4.18;;
64907;SDS011;69061;52.236;5.188;2023-08-06T11:00:20;6.18;;;3.80;;
64907;SDS011;69061;52.236;5.188;2023-08-06T11:02:47;7.65;;;4.30;;
64907;SDS011;69061;52.236;5.188;2023-08-06T11:05:14;7.25;;;4.40;;
64907;SDS011;69061;52.236;5.188;2023-08-06T11:07:41;7.05;;;4.22;;
64907;SDS011;69061;52.236;5.188;2023-08-06T11:10:08;6.13;;;3.75;;
64907;SDS011;69061;52.236;5.188;2023-08-06T11:12:36;8.68;;;4.25;;
64907;SDS011;69061;52.236;5.188;2023-08-06T11:15:03;7.03;;;3.95;;
64907;SDS011;69061;52.236;5.188;2023-08-06T11:17:33;9.38;;;4.47;;
64907;SDS011;69061;52.236;5.188;2023-08-06T11:20:01;5.97;;;3.65;;
64907;SDS011;69061;52.236;5.188;2023-08-06T11:22:29;6.97;;;4.00;;
64907;SDS011;69061;52.236;5.188;2023-08-06T11:24:56;8.93;;;5.00;;
64907;SDS011;69061;52.236;5.188;2023-08-06T11:27:23;8.27;;;4.20;;
64907;SDS011;69061;52.236;5.188;2023-08-06T11:29:52;16.27;;;4.50;;
64907;SDS011;69061;52.236;5.188;2023-08-06T11:32:19;7.72;;;3.90;;
64907;SDS011;69061;52.236;5.188;2023-08-06T11:34:47;24.27;;;5.13;;
64907;SDS011;69061;52.236;5.188;2023-08-06T11:37:14;12.43;;;4.72;;
64907;SDS011;69061;52.236;5.188;2023-08-06T11:39:46;12.48;;;4.32;;
64907;SDS011;69061;52.236;5.188;2023-08-06T11:42:14;8.25;;;3.42;;
64907;SDS011;69061;52.236;5.188;2023-08-06T11:44:41;9.38;;;3.55;;
64907;SDS011;69061;52.236;5.188;2023-08-06T11:47:12;7.97;;;3.67;;
64907;SDS011;69061;52.236;5.188;2023-08-06T11:49:43;9.93;;;3.88;;
64907;SDS011;69061;52.236;5.188;2023-08-06T11:52:15;6.72;;;3.63;;
64907;SDS011;69061;52.236;5.188;2023-08-06T11:54:44;6.40;;;3.10;;
64907;SDS011;69061;52.236;5.188;2023-08-06T11:57:11;6.75;;;3.35;;
64907;SDS011;69061;52.236;5.188;2023-08-06T11:59:38;14.70;;;4.22;;
64907;SDS011;69061;52.236;5.188;2023-08-06T12:02:07;7.50;;;3.63;;
64907;SDS011;69061;52.236;5.188;2023-08-06T12:07:28;7.05;;;3.45;;
64907;SDS011;69061;52.236;5.188;2023-08-06T12:09:55;8.75;;;3.92;;
64907;SDS011;69061;52.236;5.188;2023-08-06T12:12:21;11.20;;;4.90;;
64907;SDS011;69061;52.236;5.188;2023-08-06T12:14:48;15.93;;;4.50;;
64907;SDS011;69061;52.236;5.188;2023-08-06T12:17:15;22.02;;;4.47;;
64907;SDS011;69061;52.236;5.188;2023-08-06T12:19:42;9.02;;;4.10;;
64907;SDS011;69061;52.236;5.188;2023-08-06T12:22:10;8.20;;;4.22;;
64907;SDS011;69061;52.236;5.188;2023-08-06T12:24:39;12.70;;;4.32;;
64907;SDS011;69061;52.236;5.188;2023-08-06T12:27:06;15.93;;;4.97;;
64907;SDS011;69061;52.236;5.188;2023-08-06T12:29:33;12.77;;;4.95;;
64907;SDS011;69061;52.236;5.188;2023-08-06T12:32:00;8.68;;;4.75;;
64907;SDS011;69061;52.236;5.188;2023-08-06T12:34:27;8.43;;;4.55;;
64907;SDS011;69061;52.236;5.188;2023-08-06T12:36:53;10.95;;;4.20;;
64907;SDS011;69061;52.236;5.188;2023-08-06T12:39:20;12.07;;;4.20;;
64907;SDS011;69061;52.236;5.188;2023-08-06T12:41:48;9.65;;;4.18;;
64907;SDS011;69061;52.236;5.188;2023-08-06T12:44:15;8.57;;;4.35;;
64907;SDS011;69061;52.236;5.188;2023-08-06T12:46:42;8.10;;;4.72;;
64907;SDS011;69061;52.236;5.188;2023-08-06T12:49:08;9.93;;;4.18;;
64907;SDS011;69061;52.236;5.188;2023-08-06T12:51:35;8.50;;;4.38;;
64907;SDS011;69061;52.236;5.188;2023-08-06T12:54:01;7.60;;;4.65;;
64907;SDS011;69061;52.236;5.188;2023-08-06T12:56:28;9.40;;;4.50;;
64907;SDS011;69061;52.236;5.188;2023-08-06T12:58:56;10.20;;;5.25;;
64907;SDS011;69061;52.236;5.188;2023-08-06T13:01:23;8.68;;;4.30;;
64907;SDS011;69061;52.236;5.188;2023-08-06T13:03:50;5.55;;;3.50;;
64907;SDS011;69061;52.236;5.188;2023-08-06T13:06:16;5.97;;;3.80;;
64907;SDS011;69061;52.236;5.188;2023-08-06T13:08:43;8.88;;;4.72;;
64907;SDS011;69061;52.236;5.188;2023-08-06T13:11:10;12.82;;;4.70;;
64907;SDS011;69061;52.236;5.188;2023-08-06T13:13:36;7.22;;;4.05;;
64907;SDS011;69061;52.236;5.188;2023-08-06T13:16:04;10.15;;;4.85;;
64907;SDS011;69061;52.236;5.188;2023-08-06T13:18:31;7.88;;;4.80;;
64907;SDS011;69061;52.236;5.188;2023-08-06T13:20:58;9.43;;;4.82;;
64907;SDS011;69061;52.236;5.188;2023-08-06T13:23:24;9.10;;;4.20;;
64907;SDS011;69061;52.236;5.188;2023-08-06T13:25:51;6.88;;;3.70;;
64907;SDS011;69061;52.236;5.188;2023-08-06T13:28:17;7.43;;;4.22;;
64907;SDS011;69061;52.236;5.188;2023-08-06T13:30:44;9.40;;;4.57;;
64907;SDS011;69061;52.236;5.188;2023-08-06T13:33:13;9.63;;;4.20;;
64907;SDS011;69061;52.236;5.188;2023-08-06T13:35:39;7.40;;;4.75;;
64907;SDS011;69061;52.236;5.188;2023-08-06T13:38:06;7.70;;;4.55;;
64907;SDS011;69061;52.236;5.188;2023-08-06T13:40:33;6.38;;;3.78;;
64907;SDS011;69061;52.236;5.188;2023-08-06T13:43:00;6.40;;;4.18;;
64907;SDS011;69061;52.236;5.188;2023-08-06T13:45:27;8.75;;;3.97;;
64907;SDS011;69061;52.236;5.188;2023-08-06T13:47:54;9.80;;;3.75;;
64907;SDS011;69061;52.236;5.188;2023-08-06T13:50:23;11.48;;;5.32;;
64907;SDS011;69061;52.236;5.188;2023-08-06T13:52:50;9.07;;;4.55;;
64907;SDS011;69061;52.236;5.188;2023-08-06T13:55:18;5.47;;;3.85;;
64907;SDS011;69061;52.236;5.188;2023-08-06T13:57:45;11.20;;;4.10;;
64907;SDS011;69061;52.236;5.188;2023-08-06T14:00:12;8.27;;;4.25;;
64907;SDS011;69061;52.236;5.188;2023-08-06T14:02:39;7.38;;;4.38;;
64907;SDS011;69061;52.236;5.188;2023-08-06T14:05:06;6.35;;;3.90;;
64907;SDS011;69061;52.236;5.188;2023-08-06T14:07:34;9.23;;;4.15;;
64907;SDS011;69061;52.236;5.188;2023-08-06T14:10:01;7.63;;;3.60;;
64907;SDS011;69061;52.236;5.188;2023-08-06T14:12:28;10.32;;;4.35;;
64907;SDS011;69061;52.236;5.188;2023-08-06T14:14:54;8.32;;;3.58;;
64907;SDS011;69061;52.236;5.188;2023-08-06T14:17:21;5.78;;;3.88;;
64907;SDS011;69061;52.236;5.188;2023-08-06T14:19:47;7.32;;;4.00;;
64907;SDS011;69061;52.236;5.188;2023-08-06T14:22:14;6.93;;;3.75;;
64907;SDS011;69061;52.236;5.188;2023-08-06T14:24:42;7.22;;;4.07;;
64907;SDS011;69061;52.236;5.188;2023-08-06T14:27:09;5.53;;;3.38;;
64907;SDS011;69061;52.236;5.188;2023-08-06T14:29:36;4.93;;;3.92;;
64907;SDS011;69061;52.236;5.188;2023-08-06T14:32:03;8.30;;;3.83;;
64907;SDS011;69061;52.236;5.188;2023-08-06T14:34:30;8.15;;;4.00;;
64907;SDS011;69061;52.236;5.188;2023-08-06T14:36:56;8.55;;;4.00;;
64907;SDS011;69061;52.236;5.188;2023-08-06T14:39:24;10.13;;;4.03;;